createdAt,value
2023-01-19T00:00:48.889Z,25.73
2023-01-19T00:05:52.752Z,23.73
2023-01-19T00:10:56.277Z,24.97
2023-01-19T00:16:01.326Z,26.85
2023-01-19T00:21:04.195Z,25.88
2023-01-19T00:26:14.129Z,28.43
2023-01-19T00:31:22.109Z,24.70
2023-01-19T00:36:27.321Z,27.80
2023-01-19T00:41:44.161Z,25.87
2023-01-19T00:46:48.501Z,22.83
2023-01-19T00:51:51.575Z,23.52
2023-01-19T00:56:55.059Z,21.93
2023-01-19T01:02:03.681Z,21.20
2023-01-19T01:07:08.649Z,23.92
2023-01-19T01:12:11.928Z,26.92
2023-01-19T01:17:18.254Z,24.27
2023-01-19T01:22:21.063Z,26.02
2023-01-19T01:27:24.554Z,27.08
2023-01-19T01:32:31.315Z,26.70
2023-01-19T01:37:36.452Z,24.88
2023-01-19T01:42:41.061Z,27.83
2023-01-19T01:47:57.548Z,25.20
2023-01-19T01:53:07.639Z,25.63
2023-01-19T01:58:12.911Z,23.92
2023-01-19T02:03:18.686Z,22.08
2023-01-19T02:08:46.953Z,24.37
2023-01-19T02:13:50.958Z,25.55
2023-01-19T02:18:55.365Z,23.27
2023-01-19T02:24:04.368Z,22.43
2023-01-19T02:29:11.450Z,23.42
2023-01-19T02:34:18.288Z,22.95
2023-01-19T02:39:28.723Z,20.47
2023-01-19T02:44:34.429Z,23.10
2023-01-19T02:49:39.072Z,21.88
2023-01-19T02:54:57.774Z,21.90
2023-01-19T03:00:13.708Z,21.70
2023-01-19T03:05:31.396Z,20.48
2023-01-19T03:10:45.386Z,21.20
2023-01-19T03:15:51.526Z,19.03
2023-01-19T03:20:59.440Z,20.13
2023-01-19T03:26:06.990Z,18.65
2023-01-19T03:31:17.780Z,18.77
2023-01-19T03:36:26.025Z,24.07
2023-01-19T03:41:34.358Z,18.08
2023-01-19T03:46:39.143Z,18.63
2023-01-19T03:51:42.399Z,18.60
2023-01-19T03:56:54.164Z,18.63
2023-01-19T04:02:15.569Z,18.60
2023-01-19T04:07:20.631Z,21.30
2023-01-19T04:12:46.186Z,21.77
2023-01-19T04:25:03.640Z,16.10
2023-01-19T04:30:13.440Z,18.57
2023-01-19T04:35:32.447Z,18.63
2023-01-19T04:40:51.394Z,17.55
2023-01-19T04:46:11.906Z,19.43
2023-01-19T04:51:15.286Z,17.38
2023-01-19T04:56:20.839Z,18.90
2023-01-19T05:01:40.681Z,18.07
2023-01-19T05:06:46.859Z,19.73
2023-01-19T05:11:55.650Z,15.95
2023-01-19T05:17:05.139Z,19.33
2023-01-19T05:22:10.367Z,17.53
2023-01-19T05:27:14.894Z,18.00
2023-01-19T05:32:21.230Z,17.48
2023-01-19T05:37:27.618Z,19.00
2023-01-19T05:42:39.284Z,14.88
2023-01-19T05:47:48.335Z,21.83
2023-01-19T05:52:54.085Z,17.73
2023-01-19T05:57:57.110Z,16.63
2023-01-19T06:03:02.657Z,16.40
2023-01-19T06:08:06.557Z,17.07
2023-01-19T06:13:11.509Z,18.77
2023-01-19T06:18:16.430Z,17.15
2023-01-19T06:23:21.839Z,15.65
2023-01-19T06:28:26.040Z,17.83
2023-01-19T06:33:30.461Z,17.55
2023-01-19T06:38:33.708Z,19.17
2023-01-19T06:43:37.465Z,18.67
2023-01-19T06:48:42.154Z,18.75
2023-01-19T06:53:47.310Z,18.92
2023-01-19T06:58:50.610Z,17.97
2023-01-19T07:03:54.906Z,16.33
2023-01-19T07:09:01.057Z,17.17
2023-01-19T07:14:04.162Z,17.05
2023-01-19T07:19:11.050Z,16.63
2023-01-19T07:24:14.085Z,18.08
2023-01-19T07:29:16.837Z,17.40
2023-01-19T07:34:23.177Z,18.93
2023-01-19T07:39:27.440Z,19.42
2023-01-19T07:49:48.763Z,14.63
2023-01-19T07:54:52.078Z,16.67
2023-01-19T07:59:55.279Z,17.70
2023-01-19T08:05:01.669Z,20.13
2023-01-19T08:10:05.039Z,18.37
2023-01-19T08:15:16.657Z,17.20
2023-01-19T08:20:24.279Z,16.27
2023-01-19T08:31:05.327Z,17.60
2023-01-19T08:36:17.259Z,19.08
2023-01-19T08:41:19.826Z,15.82
2023-01-19T08:46:23.747Z,17.27
2023-01-19T08:51:26.450Z,16.27
2023-01-19T08:56:29.730Z,17.65
2023-01-19T09:01:33.678Z,15.80
2023-01-19T09:06:36.346Z,17.25
2023-01-19T09:11:38.860Z,16.58
2023-01-19T09:16:43.302Z,17.13
2023-01-19T09:21:45.806Z,15.80
2023-01-19T09:26:48.308Z,14.27
2023-01-19T09:31:52.246Z,18.63
2023-01-19T09:36:55.023Z,19.73
2023-01-19T09:42:06.776Z,19.77
2023-01-19T09:47:17.518Z,18.17
2023-01-19T09:52:20.611Z,17.87
2023-01-19T09:57:23.623Z,19.23
2023-01-19T10:02:37.298Z,17.88
2023-01-19T10:07:58.120Z,19.73
2023-01-19T10:13:16.890Z,15.60
2023-01-19T10:18:26.412Z,17.55
2023-01-19T10:23:42.307Z,16.55
2023-01-19T10:28:48.015Z,17.47
2023-01-19T10:33:52.232Z,18.33
2023-01-19T10:38:54.836Z,17.73
2023-01-19T10:44:02.869Z,18.03
2023-01-19T10:49:07.688Z,17.60
2023-01-19T10:54:14.152Z,18.92
2023-01-19T10:59:31.978Z,16.70
2023-01-19T11:04:35.809Z,20.03
2023-01-19T11:09:38.283Z,17.90
2023-01-19T11:14:40.880Z,17.70
2023-01-19T11:19:53.134Z,17.37
2023-01-19T11:25:03.155Z,17.88
2023-01-19T11:30:15.839Z,17.23
2023-01-19T11:35:38.613Z,14.87
2023-01-19T11:40:42.859Z,16.27
2023-01-19T11:45:46.856Z,17.20
2023-01-19T11:50:51.264Z,20.57
2023-01-19T11:55:58.535Z,19.27
2023-01-19T12:01:06.162Z,15.73
2023-01-19T12:06:13.430Z,17.42
2023-01-19T12:11:20.094Z,15.90
2023-01-19T12:16:23.907Z,18.02
2023-01-19T12:21:27.812Z,17.20
2023-01-19T12:26:36.702Z,16.10
2023-01-19T12:31:42.767Z,15.60
2023-01-19T12:36:46.748Z,16.30
2023-01-19T12:41:51.012Z,15.70
2023-01-19T12:46:57.309Z,19.17
2023-01-19T12:52:30.686Z,16.63
2023-01-19T12:57:36.571Z,16.27
2023-01-19T13:02:44.388Z,17.43
2023-01-19T13:08:23.529Z,15.77
2023-01-19T13:13:28.014Z,17.58
2023-01-19T13:18:35.029Z,15.67
2023-01-19T13:29:11.703Z,19.60
2023-01-19T13:34:17.743Z,15.77
2023-01-19T13:39:27.715Z,15.93
2023-01-19T13:44:37.252Z,14.40
2023-01-19T13:49:43.908Z,16.17
2023-01-19T13:54:51.253Z,15.82
2023-01-19T14:00:16.488Z,15.00
2023-01-19T14:05:23.941Z,15.97
2023-01-19T14:10:26.915Z,17.70
2023-01-19T14:15:34.764Z,16.83
2023-01-19T14:20:39.579Z,15.82
2023-01-19T14:25:46.216Z,18.90
2023-01-19T14:30:58.267Z,14.57
2023-01-19T14:36:10.677Z,17.17
2023-01-19T14:41:22.643Z,15.77
2023-01-19T14:46:47.800Z,15.93
2023-01-19T14:51:52.428Z,14.88
2023-01-19T14:56:57.327Z,15.50
2023-01-19T15:02:06.674Z,16.23
2023-01-19T15:07:18.447Z,16.63
2023-01-19T15:12:28.463Z,17.65
2023-01-19T15:17:34.105Z,15.77
2023-01-19T15:22:38.966Z,16.30
2023-01-19T15:27:42.510Z,17.77
2023-01-19T15:32:47.277Z,20.53
2023-01-19T15:37:51.859Z,18.13
2023-01-19T15:42:55.052Z,18.40
2023-01-19T15:48:00.004Z,18.87
2023-01-19T15:53:04.035Z,16.43
2023-01-19T15:58:08.959Z,22.98
2023-01-19T16:03:15.940Z,19.23
2023-01-19T16:08:20.037Z,17.93
2023-01-19T16:13:23.032Z,19.27
2023-01-19T16:18:28.807Z,20.98
2023-01-19T16:23:31.769Z,20.43
2023-01-19T16:28:35.753Z,20.65
2023-01-19T16:33:39.980Z,16.95
2023-01-19T16:38:43.226Z,18.03
2023-01-19T16:43:51.649Z,20.23
2023-01-19T16:49:01.568Z,20.50
2023-01-19T16:54:05.924Z,21.23
2023-01-19T16:59:11.941Z,19.57
2023-01-19T17:04:20.368Z,21.27
2023-01-19T17:09:23.316Z,22.17
2023-01-19T17:14:26.239Z,19.37
2023-01-19T17:19:35.813Z,20.70
2023-01-19T17:24:42.566Z,21.73
2023-01-19T17:29:52.704Z,23.60
2023-01-19T17:34:58.957Z,22.13
2023-01-19T17:40:04.457Z,22.52
2023-01-19T17:45:08.482Z,23.15
2023-01-19T17:50:14.794Z,321.50
2023-01-19T17:55:29.148Z,40.90
2023-01-19T18:00:33.025Z,95.65
2023-01-19T18:05:38.339Z,34.07
2023-01-19T18:10:42.896Z,35.65
2023-01-19T18:15:52.479Z,310.60
2023-01-19T18:20:59.571Z,201.77
2023-01-19T18:26:04.891Z,186.03
2023-01-19T18:31:09.520Z,272.42
2023-01-19T18:42:50.013Z,194.30
2023-01-19T18:47:53.387Z,629.83
2023-01-19T18:52:57.571Z,415.42
2023-01-19T18:58:05.693Z,116.17
2023-01-19T19:15:17.783Z,290.50
2023-01-19T19:40:02.663Z,95.13
2023-01-19T19:51:19.672Z,40.47
2023-01-19T19:56:28.440Z,25.60
2023-01-19T20:01:34.613Z,21.88
2023-01-19T20:06:41.815Z,32.33
2023-01-19T20:17:14.582Z,32.73
2023-01-19T20:22:19.965Z,26.80
2023-01-19T20:27:24.477Z,45.80
2023-01-19T20:32:27.704Z,31.13
2023-01-19T20:37:34.483Z,37.67
2023-01-19T20:42:41.698Z,33.92
2023-01-19T20:48:06.101Z,33.77
2023-01-19T20:53:18.951Z,33.22
2023-01-19T20:58:23.056Z,30.98
2023-01-19T21:03:29.846Z,30.33
2023-01-19T21:08:34.854Z,35.37
2023-01-19T21:13:38.860Z,33.05
2023-01-19T21:18:47.587Z,35.47
2023-01-19T21:24:04.945Z,28.20
2023-01-19T21:29:14.921Z,27.33
2023-01-19T21:34:28.506Z,27.48
2023-01-19T21:39:37.435Z,36.60
2023-01-19T21:44:41.835Z,25.73
2023-01-19T21:49:48.265Z,28.08
2023-01-19T21:54:53.045Z,27.83
2023-01-19T22:00:00.012Z,28.37
2023-01-19T22:05:03.371Z,28.40
2023-01-19T22:10:30.136Z,31.80
2023-01-19T22:15:39.502Z,28.07
2023-01-19T22:20:42.971Z,29.10
2023-01-19T22:25:48.868Z,28.52
2023-01-19T22:30:52.272Z,26.37
2023-01-19T22:35:56.115Z,26.48
2023-01-19T22:41:30.206Z,27.02
2023-01-19T22:52:21.331Z,32.20
2023-01-19T22:57:23.875Z,26.60
2023-01-19T23:02:26.339Z,24.87
2023-01-19T23:07:30.159Z,26.93
2023-01-19T23:12:32.646Z,29.85
2023-01-19T23:17:35.147Z,24.42
2023-01-19T23:22:39.769Z,24.33
2023-01-19T23:27:42.238Z,25.23
2023-01-19T23:32:48.209Z,23.05
2023-01-19T23:37:52.053Z,24.20
2023-01-19T23:42:55.838Z,23.27
2023-01-19T23:47:58.319Z,27.23
2023-01-19T23:53:02.128Z,24.63
2023-01-19T23:58:04.663Z,21.97
